sensor_id;sensor_type;location;lat;lon;timestamp;temperature;humidity
18658;DHT22;9458;50.942;5.074;2023-03-19T00:00:57;12.20;99.90
18658;DHT22;9458;50.942;5.074;2023-03-19T00:03:29;12.20;99.90
18658;DHT22;9458;50.942;5.074;2023-03-19T00:05:57;12.10;99.90
18658;DHT22;9458;50.942;5.074;2023-03-19T00:08:26;12.10;99.90
18658;DHT22;9458;50.942;5.074;2023-03-19T00:10:56;12.10;99.90
18658;DHT22;9458;50.942;5.074;2023-03-19T00:13:24;12.10;99.90
18658;DHT22;9458;50.942;5.074;2023-03-19T00:15:52;12.10;99.90
18658;DHT22;9458;50.942;5.074;2023-03-19T00:18:20;12.10;99.90
18658;DHT22;9458;50.942;5.074;2023-03-19T00:20:47;12.10;99.90
18658;DHT22;9458;50.942;5.074;2023-03-19T00:23:16;12.00;99.90
18658;DHT22;9458;50.942;5.074;2023-03-19T00:25:44;12.00;99.90
18658;DHT22;9458;50.942;5.074;2023-03-19T00:28:15;12.00;99.90
18658;DHT22;9458;50.942;5.074;2023-03-19T00:30:44;12.00;99.90
18658;DHT22;9458;50.942;5.074;2023-03-19T00:33:11;12.00;99.90
18658;DHT22;9458;50.942;5.074;2023-03-19T00:35:39;12.00;99.90
18658;DHT22;9458;50.942;5.074;2023-03-19T00:38:09;12.00;99.90
18658;DHT22;9458;50.942;5.074;2023-03-19T00:40:39;12.00;99.90
18658;DHT22;9458;50.942;5.074;2023-03-19T00:43:07;11.90;99.90
18658;DHT22;9458;50.942;5.074;2023-03-19T00:45:37;11.90;99.90
18658;DHT22;9458;50.942;5.074;2023-03-19T00:48:06;11.90;99.90
18658;DHT22;9458;50.942;5.074;2023-03-19T00:50:34;11.90;99.90
18658;DHT22;9458;50.942;5.074;2023-03-19T00:53:02;11.90;99.90
18658;DHT22;9458;50.942;5.074;2023-03-19T00:55:34;11.90;99.90
18658;DHT22;9458;50.942;5.074;2023-03-19T00:58:05;11.90;99.90
18658;DHT22;9458;50.942;5.074;2023-03-19T01:00:33;11.90;99.90
18658;DHT22;9458;50.942;5.074;2023-03-19T01:03:07;11.90;99.90
18658;DHT22;9458;50.942;5.074;2023-03-19T01:05:36;12.00;99.90
18658;DHT22;9458;50.942;5.074;2023-03-19T01:08:06;11.90;99.90
18658;DHT22;9458;50.942;5.074;2023-03-19T01:10:39;11.90;99.90
18658;DHT22;9458;50.942;5.074;2023-03-19T01:13:12;11.90;99.90
18658;DHT22;9458;50.942;5.074;2023-03-19T01:15:41;11.90;99.90
18658;DHT22;9458;50.942;5.074;2023-03-19T01:18:12;11.90;99.90
18658;DHT22;9458;50.942;5.074;2023-03-19T01:20:43;11.90;99.90
18658;DHT22;9458;50.942;5.074;2023-03-19T01:23:13;11.90;99.90
18658;DHT22;9458;50.942;5.074;2023-03-19T01:25:43;11.90;99.90
18658;DHT22;9458;50.942;5.074;2023-03-19T01:28:12;11.90;99.90
18658;DHT22;9458;50.942;5.074;2023-03-19T01:30:41;11.90;99.90
18658;DHT22;9458;50.942;5.074;2023-03-19T01:33:09;11.90;99.90
18658;DHT22;9458;50.942;5.074;2023-03-19T01:35:39;11.90;99.90
18658;DHT22;9458;50.942;5.074;2023-03-19T01:38:10;11.90;99.90
18658;DHT22;9458;50.942;5.074;2023-03-19T01:40:43;11.80;99.90
18658;DHT22;9458;50.942;5.074;2023-03-19T01:43:23;11.90;99.90
18658;DHT22;9458;50.942;5.074;2023-03-19T01:45:56;11.80;99.90
18658;DHT22;9458;50.942;5.074;2023-03-19T01:48:39;11.80;99.90
18658;DHT22;9458;50.942;5.074;2023-03-19T01:51:17;11.80;99.90
18658;DHT22;9458;50.942;5.074;2023-03-19T01:53:54;11.80;99.90
18658;DHT22;9458;50.942;5.074;2023-03-19T01:56:27;11.80;99.90
18658;DHT22;9458;50.942;5.074;2023-03-19T01:59:02;11.80;99.90
18658;DHT22;9458;50.942;5.074;2023-03-19T02:01:35;11.80;99.90
18658;DHT22;9458;50.942;5.074;2023-03-19T02:04:06;11.80;99.90
18658;DHT22;9458;50.942;5.074;2023-03-19T02:06:36;11.80;99.90
18658;DHT22;9458;50.942;5.074;2023-03-19T02:09:05;11.80;99.90
18658;DHT22;9458;50.942;5.074;2023-03-19T02:11:36;11.90;99.90
18658;DHT22;9458;50.942;5.074;2023-03-19T02:14:08;11.90;99.90
18658;DHT22;9458;50.942;5.074;2023-03-19T02:16:42;11.90;99.90
18658;DHT22;9458;50.942;5.074;2023-03-19T02:19:24;11.90;99.90
18658;DHT22;9458;50.942;5.074;2023-03-19T02:21:57;11.90;99.90
18658;DHT22;9458;50.942;5.074;2023-03-19T02:24:32;11.90;99.90
18658;DHT22;9458;50.942;5.074;2023-03-19T02:27:04;11.80;99.90
18658;DHT22;9458;50.942;5.074;2023-03-19T02:29:34;11.80;99.90
18658;DHT22;9458;50.942;5.074;2023-03-19T02:32:02;11.80;99.90
18658;DHT22;9458;50.942;5.074;2023-03-19T02:34:33;11.80;99.90
18658;DHT22;9458;50.942;5.074;2023-03-19T02:37:06;11.80;99.90
18658;DHT22;9458;50.942;5.074;2023-03-19T02:39:42;11.80;99.90
18658;DHT22;9458;50.942;5.074;2023-03-19T02:42:12;11.80;99.90
18658;DHT22;9458;50.942;5.074;2023-03-19T02:44:40;11.80;99.90
18658;DHT22;9458;50.942;5.074;2023-03-19T02:47:09;11.80;99.90
18658;DHT22;9458;50.942;5.074;2023-03-19T02:49:37;11.80;99.90
18658;DHT22;9458;50.942;5.074;2023-03-19T02:52:07;11.80;99.90
18658;DHT22;9458;50.942;5.074;2023-03-19T02:54:35;11.80;99.90
18658;DHT22;9458;50.942;5.074;2023-03-19T02:57:03;11.80;99.90
18658;DHT22;9458;50.942;5.074;2023-03-19T02:59:32;11.70;99.90
18658;DHT22;9458;50.942;5.074;2023-03-19T03:02:01;11.70;99.90
18658;DHT22;9458;50.942;5.074;2023-03-19T03:04:28;11.80;99.90
18658;DHT22;9458;50.942;5.074;2023-03-19T03:06:57;11.80;99.90
18658;DHT22;9458;50.942;5.074;2023-03-19T03:09:25;11.70;99.90
18658;DHT22;9458;50.942;5.074;2023-03-19T03:11:53;11.70;99.90
18658;DHT22;9458;50.942;5.074;2023-03-19T03:14:21;11.70;99.90
18658;DHT22;9458;50.942;5.074;2023-03-19T03:16:51;11.70;99.90
18658;DHT22;9458;50.942;5.074;2023-03-19T03:19:18;11.70;99.90
18658;DHT22;9458;50.942;5.074;2023-03-19T03:21:46;11.70;99.90
18658;DHT22;9458;50.942;5.074;2023-03-19T03:24:15;11.70;99.90
18658;DHT22;9458;50.942;5.074;2023-03-19T03:26:42;11.70;99.90
18658;DHT22;9458;50.942;5.074;2023-03-19T03:29:11;11.70;99.90
18658;DHT22;9458;50.942;5.074;2023-03-19T03:31:40;11.70;99.90
18658;DHT22;9458;50.942;5.074;2023-03-19T03:34:09;11.70;99.90
18658;DHT22;9458;50.942;5.074;2023-03-19T03:36:37;11.70;99.90
18658;DHT22;9458;50.942;5.074;2023-03-19T03:39:05;11.70;99.90
18658;DHT22;9458;50.942;5.074;2023-03-19T03:41:33;11.70;99.90
18658;DHT22;9458;50.942;5.074;2023-03-19T03:44:02;11.70;99.90
18658;DHT22;9458;50.942;5.074;2023-03-19T03:46:29;11.70;99.90
18658;DHT22;9458;50.942;5.074;2023-03-19T03:48:57;11.70;99.90
18658;DHT22;9458;50.942;5.074;2023-03-19T03:51:26;11.70;99.90
18658;DHT22;9458;50.942;5.074;2023-03-19T03:53:53;11.70;99.90
18658;DHT22;9458;50.942;5.074;2023-03-19T03:56:21;11.70;99.90
18658;DHT22;9458;50.942;5.074;2023-03-19T03:58:48;11.70;99.90
18658;DHT22;9458;50.942;5.074;2023-03-19T04:01:17;11.70;99.90
18658;DHT22;9458;50.942;5.074;2023-03-19T04:03:45;11.70;99.90
18658;DHT22;9458;50.942;5.074;2023-03-19T04:06:15;11.70;99.90
18658;DHT22;9458;50.942;5.074;2023-03-19T04:08:47;11.70;99.90
18658;DHT22;9458;50.942;5.074;2023-03-19T04:11:19;11.70;99.90
18658;DHT22;9458;50.942;5.074;2023-03-19T04:13:47;11.70;99.90
18658;DHT22;9458;50.942;5.074;2023-03-19T04:16:14;11.70;99.90
18658;DHT22;9458;50.942;5.074;2023-03-19T04:18:42;11.70;99.90
18658;DHT22;9458;50.942;5.074;2023-03-19T04:21:10;11.70;99.90
18658;DHT22;9458;50.942;5.074;2023-03-19T04:23:37;11.70;99.90
18658;DHT22;9458;50.942;5.074;2023-03-19T04:26:07;11.60;99.90
18658;DHT22;9458;50.942;5.074;2023-03-19T04:28:35;11.60;99.90
18658;DHT22;9458;50.942;5.074;2023-03-19T04:31:04;11.60;99.90
18658;DHT22;9458;50.942;5.074;2023-03-19T04:33:33;11.60;99.90
18658;DHT22;9458;50.942;5.074;2023-03-19T04:36:01;11.60;99.90
18658;DHT22;9458;50.942;5.074;2023-03-19T04:38:29;11.60;99.90
18658;DHT22;9458;50.942;5.074;2023-03-19T04:40:57;11.60;99.90
18658;DHT22;9458;50.942;5.074;2023-03-19T04:43:28;11.60;99.90
18658;DHT22;9458;50.942;5.074;2023-03-19T04:45:56;11.60;99.90
18658;DHT22;9458;50.942;5.074;2023-03-19T04:48:24;11.60;99.90
18658;DHT22;9458;50.942;5.074;2023-03-19T04:50:52;11.60;99.90
18658;DHT22;9458;50.942;5.074;2023-03-19T04:53:23;11.60;99.90
18658;DHT22;9458;50.942;5.074;2023-03-19T04:55:51;11.50;99.90
18658;DHT22;9458;50.942;5.074;2023-03-19T04:58:20;11.50;99.90
18658;DHT22;9458;50.942;5.074;2023-03-19T05:00:51;11.60;99.90
18658;DHT22;9458;50.942;5.074;2023-03-19T05:03:21;11.60;99.90
18658;DHT22;9458;50.942;5.074;2023-03-19T05:05:48;11.60;99.90
18658;DHT22;9458;50.942;5.074;2023-03-19T05:08:16;11.60;99.90
18658;DHT22;9458;50.942;5.074;2023-03-19T05:10:43;11.60;99.90
18658;DHT22;9458;50.942;5.074;2023-03-19T05:13:11;11.60;99.90
18658;DHT22;9458;50.942;5.074;2023-03-19T05:15:41;11.60;99.90
18658;DHT22;9458;50.942;5.074;2023-03-19T05:18:11;11.60;99.90
18658;DHT22;9458;50.942;5.074;2023-03-19T05:20:39;11.60;99.90
18658;DHT22;9458;50.942;5.074;2023-03-19T05:23:07;11.60;99.90
18658;DHT22;9458;50.942;5.074;2023-03-19T05:25:35;11.60;99.90
18658;DHT22;9458;50.942;5.074;2023-03-19T05:28:03;11.60;99.90
18658;DHT22;9458;50.942;5.074;2023-03-19T05:30:33;11.60;99.90
18658;DHT22;9458;50.942;5.074;2023-03-19T05:33:01;11.60;99.90
18658;DHT22;9458;50.942;5.074;2023-03-19T05:35:31;11.50;99.90
18658;DHT22;9458;50.942;5.074;2023-03-19T05:37:59;11.50;99.90
18658;DHT22;9458;50.942;5.074;2023-03-19T05:40:27;11.40;99.90
18658;DHT22;9458;50.942;5.074;2023-03-19T05:42:56;11.40;99.90
18658;DHT22;9458;50.942;5.074;2023-03-19T05:45:24;11.40;99.90
18658;DHT22;9458;50.942;5.074;2023-03-19T05:47:52;11.30;99.90
18658;DHT22;9458;50.942;5.074;2023-03-19T05:50:19;11.30;99.90
18658;DHT22;9458;50.942;5.074;2023-03-19T05:52:48;11.20;99.90
18658;DHT22;9458;50.942;5.074;2023-03-19T05:55:16;11.20;99.90
18658;DHT22;9458;50.942;5.074;2023-03-19T05:57:44;11.20;99.90
18658;DHT22;9458;50.942;5.074;2023-03-19T06:00:12;11.20;99.90
18658;DHT22;9458;50.942;5.074;2023-03-19T06:02:42;11.20;99.90
18658;DHT22;9458;50.942;5.074;2023-03-19T06:05:10;11.10;99.90
18658;DHT22;9458;50.942;5.074;2023-03-19T06:07:38;11.10;99.90
18658;DHT22;9458;50.942;5.074;2023-03-19T06:10:09;11.10;99.90
18658;DHT22;9458;50.942;5.074;2023-03-19T06:12:37;11.10;99.90
18658;DHT22;9458;50.942;5.074;2023-03-19T06:15:05;11.10;99.90
18658;DHT22;9458;50.942;5.074;2023-03-19T06:17:33;11.10;99.90
18658;DHT22;9458;50.942;5.074;2023-03-19T06:20:02;11.10;99.90
18658;DHT22;9458;50.942;5.074;2023-03-19T06:22:31;11.10;99.90
18658;DHT22;9458;50.942;5.074;2023-03-19T06:25:00;11.10;99.90
18658;DHT22;9458;50.942;5.074;2023-03-19T06:27:30;11.10;99.90
18658;DHT22;9458;50.942;5.074;2023-03-19T06:29:59;11.20;99.90
18658;DHT22;9458;50.942;5.074;2023-03-19T06:32:27;11.20;99.90
18658;DHT22;9458;50.942;5.074;2023-03-19T06:34:55;11.20;99.90
18658;DHT22;9458;50.942;5.074;2023-03-19T06:37:24;11.30;99.90
18658;DHT22;9458;50.942;5.074;2023-03-19T06:39:53;11.30;99.90
18658;DHT22;9458;50.942;5.074;2023-03-19T06:42:21;11.30;99.90
18658;DHT22;9458;50.942;5.074;2023-03-19T06:44:51;11.40;99.90
18658;DHT22;9458;50.942;5.074;2023-03-19T06:47:19;11.50;99.90
18658;DHT22;9458;50.942;5.074;2023-03-19T06:49:46;11.90;99.90
18658;DHT22;9458;50.942;5.074;2023-03-19T06:52:14;12.20;99.90
18658;DHT22;9458;50.942;5.074;2023-03-19T06:54:41;12.40;99.90
18658;DHT22;9458;50.942;5.074;2023-03-19T06:57:09;12.80;99.90
18658;DHT22;9458;50.942;5.074;2023-03-19T06:59:37;13.20;99.90
18658;DHT22;9458;50.942;5.074;2023-03-19T07:02:09;13.80;99.90
18658;DHT22;9458;50.942;5.074;2023-03-19T07:04:39;14.30;99.90
18658;DHT22;9458;50.942;5.074;2023-03-19T07:07:10;14.90;99.90
18658;DHT22;9458;50.942;5.074;2023-03-19T07:09:44;15.50;99.90
18658;DHT22;9458;50.942;5.074;2023-03-19T07:12:12;15.90;99.90
18658;DHT22;9458;50.942;5.074;2023-03-19T07:14:41;16.10;99.90
18658;DHT22;9458;50.942;5.074;2023-03-19T07:17:11;15.80;99.90
18658;DHT22;9458;50.942;5.074;2023-03-19T07:19:38;15.30;99.90
18658;DHT22;9458;50.942;5.074;2023-03-19T07:22:06;14.90;99.90
18658;DHT22;9458;50.942;5.074;2023-03-19T07:24:33;14.70;99.90
18658;DHT22;9458;50.942;5.074;2023-03-19T07:27:01;14.50;99.90
18658;DHT22;9458;50.942;5.074;2023-03-19T07:29:29;14.40;99.90
18658;DHT22;9458;50.942;5.074;2023-03-19T07:31:57;14.30;99.90
18658;DHT22;9458;50.942;5.074;2023-03-19T07:34:27;14.30;99.90
18658;DHT22;9458;50.942;5.074;2023-03-19T07:36:55;14.30;99.90
18658;DHT22;9458;50.942;5.074;2023-03-19T07:39:23;14.40;99.90
18658;DHT22;9458;50.942;5.074;2023-03-19T07:41:51;14.70;99.90
18658;DHT22;9458;50.942;5.074;2023-03-19T07:44:20;14.80;99.90
18658;DHT22;9458;50.942;5.074;2023-03-19T07:46:48;14.90;99.90
18658;DHT22;9458;50.942;5.074;2023-03-19T07:49:17;14.80;99.90
18658;DHT22;9458;50.942;5.074;2023-03-19T07:51:46;15.00;99.90
18658;DHT22;9458;50.942;5.074;2023-03-19T07:54:14;15.00;99.90
18658;DHT22;9458;50.942;5.074;2023-03-19T07:56:42;15.10;99.90
18658;DHT22;9458;50.942;5.074;2023-03-19T07:59:11;15.30;99.90
18658;DHT22;9458;50.942;5.074;2023-03-19T08:01:39;15.30;99.90
18658;DHT22;9458;50.942;5.074;2023-03-19T08:04:08;16.10;99.90
18658;DHT22;9458;50.942;5.074;2023-03-19T08:06:35;17.40;99.90
18658;DHT22;9458;50.942;5.074;2023-03-19T08:09:04;18.50;99.90
18658;DHT22;9458;50.942;5.074;2023-03-19T08:11:34;18.90;99.90
18658;DHT22;9458;50.942;5.074;2023-03-19T08:14:04;18.60;99.90
18658;DHT22;9458;50.942;5.074;2023-03-19T08:16:32;18.70;99.90
18658;DHT22;9458;50.942;5.074;2023-03-19T08:19:00;19.40;99.90
18658;DHT22;9458;50.942;5.074;2023-03-19T08:21:30;20.30;99.90
18658;DHT22;9458;50.942;5.074;2023-03-19T08:23:58;21.10;99.90
18658;DHT22;9458;50.942;5.074;2023-03-19T08:26:28;21.80;99.90
18658;DHT22;9458;50.942;5.074;2023-03-19T08:28:57;22.40;99.90
18658;DHT22;9458;50.942;5.074;2023-03-19T08:31:25;22.90;99.90
18658;DHT22;9458;50.942;5.074;2023-03-19T08:33:53;23.50;99.90
18658;DHT22;9458;50.942;5.074;2023-03-19T08:36:21;23.70;99.90
18658;DHT22;9458;50.942;5.074;2023-03-19T08:38:49;24.00;99.90
18658;DHT22;9458;50.942;5.074;2023-03-19T08:41:20;23.80;99.90
18658;DHT22;9458;50.942;5.074;2023-03-19T08:43:50;22.60;99.90
18658;DHT22;9458;50.942;5.074;2023-03-19T08:46:17;21.90;99.90
18658;DHT22;9458;50.942;5.074;2023-03-19T08:48:45;22.20;99.90
18658;DHT22;9458;50.942;5.074;2023-03-19T08:51:12;22.50;99.90
18658;DHT22;9458;50.942;5.074;2023-03-19T08:53:39;22.60;99.90
18658;DHT22;9458;50.942;5.074;2023-03-19T08:56:08;23.10;99.90
18658;DHT22;9458;50.942;5.074;2023-03-19T08:58:37;23.70;99.90
18658;DHT22;9458;50.942;5.074;2023-03-19T09:01:07;23.80;99.90
18658;DHT22;9458;50.942;5.074;2023-03-19T09:03:41;23.50;99.90
18658;DHT22;9458;50.942;5.074;2023-03-19T09:06:10;23.70;99.90
18658;DHT22;9458;50.942;5.074;2023-03-19T09:08:39;23.50;99.90
18658;DHT22;9458;50.942;5.074;2023-03-19T09:11:07;23.10;99.90
18658;DHT22;9458;50.942;5.074;2023-03-19T09:13:35;23.70;99.90
18658;DHT22;9458;50.942;5.074;2023-03-19T09:16:06;24.50;99.90
18658;DHT22;9458;50.942;5.074;2023-03-19T09:18:34;24.90;99.90
18658;DHT22;9458;50.942;5.074;2023-03-19T09:21:02;25.40;99.90
18658;DHT22;9458;50.942;5.074;2023-03-19T09:23:31;25.80;99.90
18658;DHT22;9458;50.942;5.074;2023-03-19T09:25:59;25.70;99.90
18658;DHT22;9458;50.942;5.074;2023-03-19T09:28:27;25.70;99.90
18658;DHT22;9458;50.942;5.074;2023-03-19T09:30:55;25.80;99.90
18658;DHT22;9458;50.942;5.074;2023-03-19T09:33:24;25.60;99.90
18658;DHT22;9458;50.942;5.074;2023-03-19T09:35:52;25.00;99.90
18658;DHT22;9458;50.942;5.074;2023-03-19T09:38:20;25.20;99.90
18658;DHT22;9458;50.942;5.074;2023-03-19T09:40:51;24.50;99.90
18658;DHT22;9458;50.942;5.074;2023-03-19T09:43:42;23.70;99.90
18658;DHT22;9458;50.942;5.074;2023-03-19T09:46:17;23.40;99.90
18658;DHT22;9458;50.942;5.074;2023-03-19T09:48:56;23.30;99.90
18658;DHT22;9458;50.942;5.074;2023-03-19T09:51:28;22.80;99.90
18658;DHT22;9458;50.942;5.074;2023-03-19T09:54:00;22.50;99.90
18658;DHT22;9458;50.942;5.074;2023-03-19T09:56:31;22.20;99.90
18658;DHT22;9458;50.942;5.074;2023-03-19T09:59:00;21.90;99.90
18658;DHT22;9458;50.942;5.074;2023-03-19T10:01:32;21.80;99.90
18658;DHT22;9458;50.942;5.074;2023-03-19T10:04:20;21.70;99.90
18658;DHT22;9458;50.942;5.074;2023-03-19T10:07:01;21.50;99.90
18658;DHT22;9458;50.942;5.074;2023-03-19T10:09:42;21.40;99.90
18658;DHT22;9458;50.942;5.074;2023-03-19T10:12:22;21.10;99.90
18658;DHT22;9458;50.942;5.074;2023-03-19T10:17:56;20.80;99.90
18658;DHT22;9458;50.942;5.074;2023-03-19T10:20:42;20.60;99.90
18658;DHT22;9458;50.942;5.074;2023-03-19T10:23:28;20.40;99.90
18658;DHT22;9458;50.942;5.074;2023-03-19T10:26:02;20.20;99.90
18658;DHT22;9458;50.942;5.074;2023-03-19T10:28:30;20.00;99.90
18658;DHT22;9458;50.942;5.074;2023-03-19T10:31:11;19.90;99.90
18658;DHT22;9458;50.942;5.074;2023-03-19T10:33:43;19.70;99.90
18658;DHT22;9458;50.942;5.074;2023-03-19T10:36:12;19.50;99.90
18658;DHT22;9458;50.942;5.074;2023-03-19T10:38:42;19.30;99.90
18658;DHT22;9458;50.942;5.074;2023-03-19T10:41:20;19.20;99.90
18658;DHT22;9458;50.942;5.074;2023-03-19T10:43:52;19.20;99.90
18658;DHT22;9458;50.942;5.074;2023-03-19T10:46:21;19.10;99.90
18658;DHT22;9458;50.942;5.074;2023-03-19T10:48:49;19.10;99.90
18658;DHT22;9458;50.942;5.074;2023-03-19T10:51:23;19.00;99.90
18658;DHT22;9458;50.942;5.074;2023-03-19T10:53:52;19.00;99.90
18658;DHT22;9458;50.942;5.074;2023-03-19T10:56:24;18.90;99.90
18658;DHT22;9458;50.942;5.074;2023-03-19T10:58:58;18.80;99.90
18658;DHT22;9458;50.942;5.074;2023-03-19T11:01:27;18.90;99.90
18658;DHT22;9458;50.942;5.074;2023-03-19T11:04:12;18.80;99.90
18658;DHT22;9458;50.942;5.074;2023-03-19T11:06:47;18.80;99.90
18658;DHT22;9458;50.942;5.074;2023-03-19T11:09:20;18.80;99.90
18658;DHT22;9458;50.942;5.074;2023-03-19T11:11:51;18.70;99.90
18658;DHT22;9458;50.942;5.074;2023-03-19T11:14:23;18.70;99.90
18658;DHT22;9458;50.942;5.074;2023-03-19T11:16:56;18.70;99.90
18658;DHT22;9458;50.942;5.074;2023-03-19T11:19:27;18.70;99.90
18658;DHT22;9458;50.942;5.074;2023-03-19T11:22:14;18.80;99.90
18658;DHT22;9458;50.942;5.074;2023-03-19T11:24:49;18.80;99.90
18658;DHT22;9458;50.942;5.074;2023-03-19T11:27:18;18.80;99.90
18658;DHT22;9458;50.942;5.074;2023-03-19T11:29:53;18.80;99.90
18658;DHT22;9458;50.942;5.074;2023-03-19T11:32:45;18.80;99.90
18658;DHT22;9458;50.942;5.074;2023-03-19T11:35:22;18.70;99.90
18658;DHT22;9458;50.942;5.074;2023-03-19T11:37:56;18.60;99.90
18658;DHT22;9458;50.942;5.074;2023-03-19T11:40:34;18.60;99.90
18658;DHT22;9458;50.942;5.074;2023-03-19T11:46:02;18.50;99.90
18658;DHT22;9458;50.942;5.074;2023-03-19T11:48:52;18.50;99.90
18658;DHT22;9458;50.942;5.074;2023-03-19T11:51:31;18.40;99.90
18658;DHT22;9458;50.942;5.074;2023-03-19T11:54:07;18.30;99.90
18658;DHT22;9458;50.942;5.074;2023-03-19T11:56:41;18.30;99.90
18658;DHT22;9458;50.942;5.074;2023-03-19T11:59:20;18.30;99.90
18658;DHT22;9458;50.942;5.074;2023-03-19T12:05:13;18.20;99.90
18658;DHT22;9458;50.942;5.074;2023-03-19T12:07:50;18.20;99.90
18658;DHT22;9458;50.942;5.074;2023-03-19T12:10:51;18.10;99.90
18658;DHT22;9458;50.942;5.074;2023-03-19T12:13:32;18.10;99.90
18658;DHT22;9458;50.942;5.074;2023-03-19T12:16:12;18.00;99.90
18658;DHT22;9458;50.942;5.074;2023-03-19T12:18:54;18.00;99.90
18658;DHT22;9458;50.942;5.074;2023-03-19T12:21:32;18.10;99.90
18658;DHT22;9458;50.942;5.074;2023-03-19T12:24:05;18.10;99.90
18658;DHT22;9458;50.942;5.074;2023-03-19T12:26:56;18.10;99.90
18658;DHT22;9458;50.942;5.074;2023-03-19T12:29:33;18.10;99.90
18658;DHT22;9458;50.942;5.074;2023-03-19T12:32:26;18.10;99.90
18658;DHT22;9458;50.942;5.074;2023-03-19T12:35:09;18.00;99.90
18658;DHT22;9458;50.942;5.074;2023-03-19T12:37:43;17.90;99.90
18658;DHT22;9458;50.942;5.074;2023-03-19T12:40:21;17.90;99.90
18658;DHT22;9458;50.942;5.074;2023-03-19T12:42:57;17.80;99.90
18658;DHT22;9458;50.942;5.074;2023-03-19T12:45:28;17.80;99.90
18658;DHT22;9458;50.942;5.074;2023-03-19T12:48:01;17.90;99.90
18658;DHT22;9458;50.942;5.074;2023-03-19T12:50:33;17.90;99.90
18658;DHT22;9458;50.942;5.074;2023-03-19T12:53:06;17.90;99.90
18658;DHT22;9458;50.942;5.074;2023-03-19T12:55:39;17.80;99.90
18658;DHT22;9458;50.942;5.074;2023-03-19T12:58:15;17.80;99.90
18658;DHT22;9458;50.942;5.074;2023-03-19T13:00:49;17.70;99.90
18658;DHT22;9458;50.942;5.074;2023-03-19T13:03:24;17.70;99.90
18658;DHT22;9458;50.942;5.074;2023-03-19T13:05:58;17.60;99.90
18658;DHT22;9458;50.942;5.074;2023-03-19T13:08:32;17.60;99.90
18658;DHT22;9458;50.942;5.074;2023-03-19T13:11:04;17.50;99.90
18658;DHT22;9458;50.942;5.074;2023-03-19T13:13:40;17.50;99.90
18658;DHT22;9458;50.942;5.074;2023-03-19T13:16:19;17.40;99.90
18658;DHT22;9458;50.942;5.074;2023-03-19T13:18:56;17.40;99.90
18658;DHT22;9458;50.942;5.074;2023-03-19T13:21:27;17.30;99.90
18658;DHT22;9458;50.942;5.074;2023-03-19T13:24:05;17.30;99.90
18658;DHT22;9458;50.942;5.074;2023-03-19T13:26:34;17.20;99.90
18658;DHT22;9458;50.942;5.074;2023-03-19T13:29:08;17.20;99.90
18658;DHT22;9458;50.942;5.074;2023-03-19T13:31:40;17.10;99.90
18658;DHT22;9458;50.942;5.074;2023-03-19T13:34:19;17.10;99.90
18658;DHT22;9458;50.942;5.074;2023-03-19T13:36:53;17.00;99.90
18658;DHT22;9458;50.942;5.074;2023-03-19T13:39:25;17.00;99.90
18658;DHT22;9458;50.942;5.074;2023-03-19T13:45:02;16.90;99.90
18658;DHT22;9458;50.942;5.074;2023-03-19T13:47:38;16.80;99.90
18658;DHT22;9458;50.942;5.074;2023-03-19T13:50:29;16.80;99.90
18658;DHT22;9458;50.942;5.074;2023-03-19T13:53:22;16.80;99.90
18658;DHT22;9458;50.942;5.074;2023-03-19T13:55:59;16.80;99.90
18658;DHT22;9458;50.942;5.074;2023-03-19T13:58:28;16.80;99.90
18658;DHT22;9458;50.942;5.074;2023-03-19T14:01:40;16.70;99.90
18658;DHT22;9458;50.942;5.074;2023-03-19T14:04:24;16.60;99.90
18658;DHT22;9458;50.942;5.074;2023-03-19T14:06:55;16.60;99.90
18658;DHT22;9458;50.942;5.074;2023-03-19T14:09:33;16.50;99.90
18658;DHT22;9458;50.942;5.074;2023-03-19T14:12:20;16.50;99.90
18658;DHT22;9458;50.942;5.074;2023-03-19T14:14:50;16.40;99.90
18658;DHT22;9458;50.942;5.074;2023-03-19T14:17:23;16.40;99.90
18658;DHT22;9458;50.942;5.074;2023-03-19T14:19:52;16.40;99.90
18658;DHT22;9458;50.942;5.074;2023-03-19T14:22:32;16.50;99.90
18658;DHT22;9458;50.942;5.074;2023-03-19T14:25:12;16.50;99.90
18658;DHT22;9458;50.942;5.074;2023-03-19T14:27:46;16.50;99.90
18658;DHT22;9458;50.942;5.074;2023-03-19T14:30:20;16.40;99.90
18658;DHT22;9458;50.942;5.074;2023-03-19T14:32:54;16.40;99.90
18658;DHT22;9458;50.942;5.074;2023-03-19T14:35:24;16.40;99.90
18658;DHT22;9458;50.942;5.074;2023-03-19T14:37:53;16.30;99.90
18658;DHT22;9458;50.942;5.074;2023-03-19T14:40:22;16.30;99.90
18658;DHT22;9458;50.942;5.074;2023-03-19T14:42:57;16.30;99.90
18658;DHT22;9458;50.942;5.074;2023-03-19T14:45:49;16.20;99.90
18658;DHT22;9458;50.942;5.074;2023-03-19T14:51:53;16.20;99.90
18658;DHT22;9458;50.942;5.074;2023-03-19T14:54:29;16.10;99.90
18658;DHT22;9458;50.942;5.074;2023-03-19T14:57:06;16.10;99.90
18658;DHT22;9458;50.942;5.074;2023-03-19T14:59:36;16.00;99.90
18658;DHT22;9458;50.942;5.074;2023-03-19T15:02:20;16.00;99.90
18658;DHT22;9458;50.942;5.074;2023-03-19T15:04:54;16.00;99.90
18658;DHT22;9458;50.942;5.074;2023-03-19T15:07:29;15.90;99.90
18658;DHT22;9458;50.942;5.074;2023-03-19T15:10:00;15.90;99.90
18658;DHT22;9458;50.942;5.074;2023-03-19T15:15:31;15.90;99.90
18658;DHT22;9458;50.942;5.074;2023-03-19T15:18:02;15.80;99.90
18658;DHT22;9458;50.942;5.074;2023-03-19T15:20:35;15.80;99.90
18658;DHT22;9458;50.942;5.074;2023-03-19T15:23:09;15.80;99.90
18658;DHT22;9458;50.942;5.074;2023-03-19T15:25:44;15.80;99.90
18658;DHT22;9458;50.942;5.074;2023-03-19T15:28:13;15.80;99.90
18658;DHT22;9458;50.942;5.074;2023-03-19T15:30:43;15.80;99.90
18658;DHT22;9458;50.942;5.074;2023-03-19T15:33:19;15.70;99.90
18658;DHT22;9458;50.942;5.074;2023-03-19T15:35:53;15.70;99.90
18658;DHT22;9458;50.942;5.074;2023-03-19T15:38:23;15.70;99.90
18658;DHT22;9458;50.942;5.074;2023-03-19T15:40:51;15.70;99.90
18658;DHT22;9458;50.942;5.074;2023-03-19T15:43:20;15.70;99.90
18658;DHT22;9458;50.942;5.074;2023-03-19T15:45:50;15.80;99.90
18658;DHT22;9458;50.942;5.074;2023-03-19T15:48:20;15.70;99.90
18658;DHT22;9458;50.942;5.074;2023-03-19T15:50:50;15.70;99.90
18658;DHT22;9458;50.942;5.074;2023-03-19T15:53:24;15.70;99.90
18658;DHT22;9458;50.942;5.074;2023-03-19T15:55:56;15.70;99.90
18658;DHT22;9458;50.942;5.074;2023-03-19T15:58:26;15.70;99.90
18658;DHT22;9458;50.942;5.074;2023-03-19T16:00:55;15.60;99.90
18658;DHT22;9458;50.942;5.074;2023-03-19T16:03:27;15.60;99.90
18658;DHT22;9458;50.942;5.074;2023-03-19T16:05:59;15.50;99.90
18658;DHT22;9458;50.942;5.074;2023-03-19T16:08:30;15.50;99.90
18658;DHT22;9458;50.942;5.074;2023-03-19T16:11:21;15.50;99.90
18658;DHT22;9458;50.942;5.074;2023-03-19T16:13:58;15.40;99.90
18658;DHT22;9458;50.942;5.074;2023-03-19T16:16:32;15.30;99.90
18658;DHT22;9458;50.942;5.074;2023-03-19T16:19:00;15.30;99.90
18658;DHT22;9458;50.942;5.074;2023-03-19T16:21:33;15.30;99.90
18658;DHT22;9458;50.942;5.074;2023-03-19T16:24:12;15.20;99.90
18658;DHT22;9458;50.942;5.074;2023-03-19T16:26:41;15.20;99.90
18658;DHT22;9458;50.942;5.074;2023-03-19T16:29:18;15.10;99.90
18658;DHT22;9458;50.942;5.074;2023-03-19T16:31:48;15.10;99.90